aviador You're here:

GCLA Decoded Metar

LA PALMA in SPAIN
Report Time2017-08-24 03:00:00
UTC Time2017-08-24 03:07:09
Flight Rules vfr VFR
Wind350° at 13 kt
W.Decomp.*RWY 01: 12.7 kt HW 2.9 kt LCW
W.Rank350° ranks 5
Current wind is above 350° avg. (9.6)
Visibility9999 m
Phenomena:N/A
Clouds:N/A
Expected CloudBase > 800 ft AGL from Temp-Dew spread
CeilingNone
Temp22°C (ISA +7)
Dew Point20°C (88% RH)
AAT21.0°C
QNH1013 hPa
Density Alt1,250 ft
Elevation102 ft
Report Wrong Elevation
Raw Report
METAR GCLA 240300Z AUTO 35013KT 9999 NCD 22/20 Q1013=

Extra information for GCLA:More info

Metar Taf Metar & Taf Last 4 Metars F.Rules Stats Wind Profile Meteogram Temp Stats Airport Information Weather charts Add Link Nearby VenuesMetar ALERT Operation Metar Decoded Social comments